createdAt,value
2019-06-26T00:01:41.794Z,9.78
2019-06-26T00:04:13.204Z,9.70
2019-06-26T00:06:44.630Z,9.80
2019-06-26T00:09:16.129Z,9.68
2019-06-26T00:11:47.676Z,9.45
2019-06-26T00:14:19.242Z,9.78
2019-06-26T00:16:50.653Z,9.88
2019-06-26T00:19:22.233Z,10.60
2019-06-26T00:21:53.649Z,9.70
2019-06-26T00:24:25.062Z,9.73
2019-06-26T00:26:56.602Z,10.08
2019-06-26T00:29:28.012Z,10.40
2019-06-26T00:31:59.443Z,9.38
2019-06-26T00:34:30.931Z,10.38
2019-06-26T00:37:02.363Z,10.35
2019-06-26T00:39:33.841Z,9.78
2019-06-26T00:42:05.473Z,9.60
2019-06-26T00:44:37.006Z,9.65
2019-06-26T00:47:08.452Z,9.95
2019-06-26T00:49:39.873Z,10.25
2019-06-26T00:52:11.449Z,10.10
2019-06-26T00:54:42.859Z,9.83
2019-06-26T00:57:14.425Z,12.25
2019-06-26T00:59:45.840Z,11.33
2019-06-26T01:02:17.347Z,10.85
2019-06-26T01:04:50.439Z,10.05
2019-06-26T01:07:21.886Z,11.10
2019-06-26T01:09:53.280Z,12.00
2019-06-26T01:12:24.870Z,11.10
2019-06-26T01:14:56.283Z,10.90
2019-06-26T01:17:27.698Z,10.80
2019-06-26T01:19:59.151Z,11.63
2019-06-26T01:22:30.667Z,10.82
2019-06-26T01:25:02.179Z,11.35
2019-06-26T01:27:33.733Z,12.18
2019-06-26T01:30:05.916Z,12.05
2019-06-26T01:32:37.299Z,12.78
2019-06-26T01:35:09.647Z,10.98
2019-06-26T01:37:41.057Z,12.70
2019-06-26T01:40:12.643Z,11.28
2019-06-26T01:42:44.135Z,11.53
2019-06-26T01:45:16.129Z,13.15
2019-06-26T01:47:47.626Z,13.62
2019-06-26T01:50:19.405Z,12.95
2019-06-26T01:52:50.839Z,13.90
2019-06-26T01:55:22.407Z,13.78
2019-06-26T01:57:53.835Z,11.63
2019-06-26T02:00:25.491Z,11.50
2019-06-26T02:02:56.932Z,11.03
2019-06-26T02:05:28.425Z,12.50
2019-06-26T02:07:59.989Z,14.55
2019-06-26T02:10:31.406Z,14.20
2019-06-26T02:13:02.896Z,15.48
2019-06-26T02:15:34.300Z,15.53
2019-06-26T02:18:07.927Z,16.80
2019-06-26T02:20:39.336Z,16.32
2019-06-26T02:23:10.776Z,16.67
2019-06-26T02:25:42.198Z,16.75
2019-06-26T02:28:13.618Z,16.15
2019-06-26T02:30:45.099Z,15.08
2019-06-26T02:33:16.528Z,14.95
2019-06-26T02:35:48.047Z,15.25
2019-06-26T02:38:20.550Z,14.70
2019-06-26T02:40:52.118Z,16.90
2019-06-26T02:43:23.679Z,16.12
2019-06-26T02:45:55.172Z,14.80
2019-06-26T02:48:26.689Z,17.02
2019-06-26T02:50:58.154Z,20.75
2019-06-26T02:53:29.670Z,17.15
2019-06-26T02:56:01.156Z,18.65
2019-06-26T02:58:32.580Z,17.23
2019-06-26T03:01:04.079Z,46.23
2019-06-26T03:03:35.683Z,19.10
2019-06-26T03:06:07.163Z,19.10
2019-06-26T03:08:41.471Z,18.50
2019-06-26T03:11:13.073Z,21.95
2019-06-26T03:13:44.810Z,18.77
2019-06-26T03:16:16.317Z,19.20
2019-06-26T03:18:47.821Z,17.75
2019-06-26T03:21:19.246Z,17.25
2019-06-26T03:23:50.703Z,18.45
2019-06-26T03:26:22.135Z,18.15
2019-06-26T03:28:53.639Z,20.80
2019-06-26T03:31:25.159Z,21.17
2019-06-26T03:33:56.581Z,21.97
2019-06-26T03:36:28.058Z,19.70
2019-06-26T03:38:59.497Z,19.42
2019-06-26T03:41:30.914Z,25.55
2019-06-26T03:44:02.438Z,24.30
2019-06-26T03:46:33.981Z,21.33
2019-06-26T03:49:05.511Z,23.10
2019-06-26T03:51:36.935Z,24.37
2019-06-26T03:54:08.361Z,24.75
2019-06-26T03:56:39.797Z,23.55
2019-06-26T03:59:11.288Z,24.32
2019-06-26T04:01:42.874Z,26.57
2019-06-26T04:04:14.312Z,28.38
2019-06-26T04:06:45.720Z,30.08
2019-06-26T04:09:17.182Z,29.95
2019-06-26T04:11:48.608Z,31.62
2019-06-26T04:14:20.246Z,30.52
2019-06-26T04:16:51.655Z,34.35
2019-06-26T04:19:23.109Z,33.70
2019-06-26T04:21:54.600Z,37.90
2019-06-26T04:24:26.048Z,35.10
2019-06-26T04:26:57.458Z,34.40
2019-06-26T04:29:28.890Z,40.73
2019-06-26T04:32:00.406Z,38.45
2019-06-26T04:34:31.817Z,37.88
2019-06-26T04:37:03.341Z,45.73
2019-06-26T04:39:34.807Z,47.08
2019-06-26T04:42:06.320Z,47.62
2019-06-26T04:44:37.760Z,48.13
2019-06-26T04:47:09.174Z,48.65
2019-06-26T04:49:40.665Z,48.45
2019-06-26T04:52:12.162Z,54.08
2019-06-26T04:54:43.610Z,51.63
2019-06-26T04:57:15.116Z,53.60
2019-06-26T04:59:46.604Z,54.35
2019-06-26T05:02:18.151Z,53.87
2019-06-26T05:04:49.652Z,52.10
2019-06-26T05:07:21.186Z,51.73
2019-06-26T05:09:52.627Z,50.95
2019-06-26T05:12:24.154Z,48.95
2019-06-26T05:14:55.656Z,49.45
2019-06-26T05:17:27.140Z,48.60
2019-06-26T05:19:58.556Z,48.38
2019-06-26T05:22:29.971Z,50.35
2019-06-26T05:25:01.473Z,48.83
2019-06-26T05:27:32.973Z,50.20
2019-06-26T05:30:05.465Z,50.23
2019-06-26T05:32:37.014Z,50.30
2019-06-26T05:35:09.151Z,50.78
2019-06-26T05:37:40.616Z,51.15
2019-06-26T05:40:12.713Z,51.45
2019-06-26T05:42:44.380Z,50.95
2019-06-26T05:45:16.385Z,51.53
2019-06-26T05:47:47.803Z,50.88
2019-06-26T05:50:20.938Z,53.02
2019-06-26T05:52:52.502Z,54.60
2019-06-26T05:55:24.002Z,52.98
2019-06-26T05:57:55.562Z,51.85
2019-06-26T06:00:27.195Z,51.00
2019-06-26T06:02:58.706Z,54.05
2019-06-26T06:05:30.323Z,54.93
2019-06-26T06:08:01.964Z,56.70
2019-06-26T06:10:33.574Z,52.38
2019-06-26T06:13:05.083Z,49.35
2019-06-26T06:15:36.686Z,51.77
2019-06-26T06:18:08.278Z,51.50
2019-06-26T06:20:40.387Z,53.98
2019-06-26T06:23:11.898Z,50.45
2019-06-26T06:25:43.388Z,51.42
2019-06-26T06:28:14.818Z,48.17
2019-06-26T06:30:46.344Z,49.83
2019-06-26T06:33:17.925Z,52.27
2019-06-26T06:35:49.457Z,49.58
2019-06-26T06:38:21.132Z,51.50
2019-06-26T06:40:52.682Z,49.00
2019-06-26T06:43:24.133Z,50.48
2019-06-26T06:45:55.700Z,52.43
2019-06-26T06:48:27.105Z,50.43
2019-06-26T06:50:58.641Z,49.03
2019-06-26T06:53:30.241Z,48.05
2019-06-26T06:56:01.680Z,50.80
2019-06-26T06:58:33.210Z,51.33
2019-06-26T07:01:04.821Z,49.03
2019-06-26T07:03:36.255Z,48.75
2019-06-26T07:06:07.814Z,52.45
2019-06-26T07:08:39.232Z,48.45
2019-06-26T07:11:10.767Z,46.73
2019-06-26T07:13:42.335Z,48.73
2019-06-26T07:16:14.063Z,48.70
2019-06-26T07:18:45.651Z,45.03
2019-06-26T07:21:17.098Z,45.70
2019-06-26T07:23:48.611Z,40.88
2019-06-26T07:26:20.206Z,38.13
2019-06-26T07:28:51.715Z,46.53
2019-06-26T07:31:23.242Z,43.33
2019-06-26T07:33:55.895Z,45.73
2019-06-26T07:36:27.527Z,45.90
2019-06-26T07:38:59.029Z,42.67
2019-06-26T07:41:30.538Z,41.95
2019-06-26T07:44:02.083Z,40.43
2019-06-26T07:46:33.691Z,42.23
2019-06-26T07:49:05.230Z,42.83
2019-06-26T07:51:36.670Z,43.33
2019-06-26T07:54:08.106Z,41.15
2019-06-26T07:56:39.524Z,40.17
2019-06-26T07:59:11.026Z,42.33
2019-06-26T08:01:42.549Z,38.88
2019-06-26T08:04:14.053Z,39.35
2019-06-26T08:06:45.641Z,35.20
2019-06-26T08:09:17.490Z,33.67
2019-06-26T08:11:49.032Z,28.80
2019-06-26T08:14:20.464Z,30.08
2019-06-26T08:16:51.991Z,32.35
2019-06-26T08:19:23.416Z,29.52
2019-06-26T08:21:54.876Z,30.50
2019-06-26T08:24:26.428Z,31.10
2019-06-26T08:26:58.129Z,28.75
2019-06-26T08:29:29.756Z,29.48
2019-06-26T08:32:01.395Z,30.10
2019-06-26T08:34:32.967Z,40.30
2019-06-26T08:37:04.550Z,31.23
2019-06-26T08:39:36.143Z,31.77
2019-06-26T08:42:07.728Z,33.13
2019-06-26T08:44:39.254Z,32.45
2019-06-26T08:47:10.694Z,32.35
2019-06-26T08:49:42.149Z,35.20
2019-06-26T08:52:13.763Z,36.85
2019-06-26T08:54:45.362Z,41.45
2019-06-26T08:57:16.949Z,40.70
2019-06-26T08:59:48.526Z,40.25
2019-06-26T09:02:20.028Z,41.08
2019-06-26T09:04:51.528Z,42.83
2019-06-26T09:07:23.013Z,42.03
2019-06-26T09:09:54.533Z,38.95
2019-06-26T09:12:25.971Z,38.40
2019-06-26T09:14:57.408Z,36.23
2019-06-26T09:17:29.022Z,36.90
2019-06-26T09:20:00.470Z,38.80
2019-06-26T09:22:31.919Z,38.58
2019-06-26T09:25:20.303Z,37.38
2019-06-26T09:27:36.845Z,40.10
2019-06-26T09:30:09.147Z,39.48
2019-06-26T09:32:40.658Z,42.88
2019-06-26T09:35:13.829Z,44.03
2019-06-26T09:37:45.601Z,37.20
2019-06-26T09:40:17.393Z,40.25
2019-06-26T09:42:48.936Z,42.27
2019-06-26T09:45:21.254Z,41.30
2019-06-26T09:47:52.844Z,37.65
2019-06-26T09:50:24.376Z,36.73
2019-06-26T09:52:55.921Z,39.05
2019-06-26T09:55:27.520Z,35.55
2019-06-26T09:57:59.108Z,31.70
2019-06-26T10:00:30.814Z,34.27
2019-06-26T10:03:02.421Z,40.48
2019-06-26T10:05:33.960Z,33.48
2019-06-26T10:08:05.537Z,31.82
2019-06-26T10:10:37.070Z,30.30
2019-06-26T10:13:08.667Z,33.00
2019-06-26T10:15:40.214Z,32.28
2019-06-26T10:18:11.726Z,27.32
2019-06-26T10:20:43.286Z,27.60
2019-06-26T10:23:14.802Z,34.50
2019-06-26T10:25:46.418Z,34.65
2019-06-26T10:28:18.002Z,31.00
2019-06-26T10:30:49.610Z,31.10
2019-06-26T10:33:21.108Z,33.55
2019-06-26T10:35:52.818Z,35.17
2019-06-26T10:38:24.559Z,42.75
2019-06-26T10:40:55.993Z,39.25
2019-06-26T10:43:27.547Z,35.85
2019-06-26T10:45:59.016Z,34.23
2019-06-26T10:48:30.445Z,33.40
2019-06-26T10:51:01.961Z,35.35
2019-06-26T10:53:33.694Z,29.40
2019-06-26T10:56:05.361Z,30.80
2019-06-26T10:58:36.866Z,32.88
2019-06-26T11:01:08.513Z,28.77
2019-06-26T11:03:40.109Z,32.15
2019-06-26T11:06:11.662Z,26.82
2019-06-26T11:08:43.224Z,28.23
2019-06-26T11:11:14.681Z,32.70
2019-06-26T11:13:46.299Z,31.30
2019-06-26T11:16:17.826Z,30.43
2019-06-26T11:18:49.701Z,32.55
2019-06-26T11:21:21.959Z,32.93
2019-06-26T11:23:53.606Z,29.35
2019-06-26T11:26:25.343Z,30.32
2019-06-26T11:28:57.218Z,32.38
2019-06-26T11:31:30.311Z,34.38
2019-06-26T11:34:02.316Z,30.60
2019-06-26T11:36:34.212Z,29.63
2019-06-26T11:39:08.218Z,27.13
2019-06-26T11:41:39.914Z,26.75
2019-06-26T11:44:11.519Z,23.67
2019-06-26T11:46:43.598Z,20.48
2019-06-26T11:49:16.723Z,24.55
2019-06-26T11:51:48.320Z,21.85
2019-06-26T11:54:20.043Z,21.90
2019-06-26T11:56:51.587Z,28.32
2019-06-26T11:59:23.437Z,32.58
2019-06-26T12:01:55.140Z,27.60
2019-06-26T12:04:26.773Z,29.63
2019-06-26T12:06:58.884Z,34.08
2019-06-26T12:09:30.511Z,29.07
2019-06-26T12:12:02.134Z,33.13
2019-06-26T12:14:33.640Z,29.30
2019-06-26T12:17:05.435Z,31.37
2019-06-26T12:19:37.142Z,31.52
2019-06-26T12:22:08.949Z,30.08
2019-06-26T12:24:40.447Z,29.18
2019-06-26T12:27:12.031Z,24.55
2019-06-26T12:29:43.718Z,27.20
2019-06-26T12:32:15.251Z,24.92
2019-06-26T12:34:46.870Z,27.50
2019-06-26T12:37:18.639Z,26.15
2019-06-26T12:39:50.105Z,23.35
2019-06-26T12:42:21.620Z,20.43
2019-06-26T12:44:53.542Z,23.02
2019-06-26T12:47:25.681Z,22.70
2019-06-26T12:49:57.702Z,19.65
2019-06-26T12:52:29.293Z,21.05
2019-06-26T12:55:01.030Z,22.60
2019-06-26T12:57:32.619Z,20.85
2019-06-26T13:00:05.215Z,26.05
2019-06-26T13:02:36.777Z,22.67
2019-06-26T13:05:09.156Z,16.82
2019-06-26T13:07:40.766Z,20.00
2019-06-26T13:10:13.040Z,16.32
2019-06-26T13:12:45.915Z,15.83
2019-06-26T13:17:48.420Z,17.17
2019-06-26T13:20:20.109Z,16.12
2019-06-26T13:22:51.586Z,21.70
2019-06-26T13:25:22.998Z,14.45
2019-06-26T13:27:54.605Z,22.65
2019-06-26T13:30:36.161Z,13.50
2019-06-26T13:33:07.864Z,14.47
2019-06-26T13:35:39.375Z,13.50
2019-06-26T13:38:10.985Z,12.95
2019-06-26T13:40:42.483Z,13.08
2019-06-26T13:43:14.010Z,15.55
2019-06-26T13:45:45.616Z,18.37
2019-06-26T13:48:17.201Z,14.13
2019-06-26T13:50:48.762Z,14.50
2019-06-26T13:53:20.317Z,12.00
2019-06-26T13:55:51.885Z,10.82
2019-06-26T13:58:23.521Z,11.70
2019-06-26T14:00:55.056Z,14.23
2019-06-26T14:03:26.797Z,28.92
2019-06-26T14:05:58.342Z,12.37
2019-06-26T14:08:32.775Z,12.47
2019-06-26T14:13:33.968Z,9.78
2019-06-26T14:16:05.549Z,11.28
2019-06-26T14:18:37.111Z,10.32
2019-06-26T14:21:21.513Z,10.63
2019-06-26T14:23:41.854Z,10.18
2019-06-26T14:26:13.328Z,8.50
2019-06-26T14:28:44.910Z,7.85
2019-06-26T14:31:16.410Z,7.70
2019-06-26T14:33:47.919Z,7.62
2019-06-26T14:36:22.364Z,7.30
2019-06-26T14:38:52.656Z,7.53
2019-06-26T14:41:24.164Z,9.33
2019-06-26T14:43:55.687Z,9.05
2019-06-26T14:46:27.184Z,7.97
2019-06-26T14:48:58.702Z,8.13
2019-06-26T14:51:43.638Z,6.85
2019-06-26T14:54:03.371Z,7.83
2019-06-26T14:56:35.008Z,7.42
2019-06-26T14:59:06.574Z,8.48
2019-06-26T15:01:38.205Z,7.58
2019-06-26T15:04:09.816Z,9.28
2019-06-26T15:06:41.407Z,8.50
2019-06-26T15:09:13.124Z,8.08
2019-06-26T15:11:44.573Z,7.42
2019-06-26T15:14:16.215Z,7.50
2019-06-26T15:16:47.810Z,6.97
2019-06-26T15:19:19.316Z,7.15
2019-06-26T15:21:58.259Z,7.25
2019-06-26T15:24:24.094Z,8.00
2019-06-26T15:26:55.579Z,7.20
2019-06-26T15:29:27.016Z,7.85
2019-06-26T15:31:58.512Z,7.80
2019-06-26T15:34:30.041Z,7.22
2019-06-26T15:37:01.544Z,8.20
2019-06-26T15:39:33.013Z,7.40
2019-06-26T15:42:04.513Z,9.25
2019-06-26T15:44:36.019Z,7.72
2019-06-26T15:47:07.512Z,7.83
2019-06-26T15:49:38.966Z,9.28
2019-06-26T15:52:14.910Z,8.20
2019-06-26T15:54:43.703Z,8.15
2019-06-26T15:57:15.249Z,7.80
2019-06-26T15:59:46.823Z,8.55
2019-06-26T16:02:18.343Z,8.68
2019-06-26T16:04:50.826Z,8.90
2019-06-26T16:07:22.283Z,9.30
2019-06-26T16:09:54.136Z,8.63
2019-06-26T16:12:25.572Z,8.18
2019-06-26T16:14:57.078Z,8.10
2019-06-26T16:17:38.745Z,7.95
2019-06-26T16:20:10.241Z,8.10
2019-06-26T16:22:41.982Z,8.60
2019-06-26T16:25:14.152Z,8.63
2019-06-26T16:27:45.666Z,10.95
2019-06-26T16:30:17.454Z,10.23
2019-06-26T16:32:48.946Z,9.85
2019-06-26T16:35:20.632Z,9.38
2019-06-26T16:37:52.311Z,9.43
2019-06-26T16:40:23.938Z,10.78
2019-06-26T16:42:55.592Z,10.48
2019-06-26T16:45:27.394Z,10.50
2019-06-26T16:47:58.869Z,10.13
2019-06-26T16:50:30.477Z,9.03
2019-06-26T16:53:01.915Z,11.10
2019-06-26T16:55:33.367Z,10.38
2019-06-26T16:58:04.946Z,13.80
2019-06-26T17:00:36.868Z,10.15
2019-06-26T17:03:08.365Z,10.85
2019-06-26T17:05:39.808Z,8.75
2019-06-26T17:08:11.405Z,9.15
2019-06-26T17:10:42.831Z,8.23
2019-06-26T17:13:14.413Z,13.03
2019-06-26T17:15:46.062Z,10.50
2019-06-26T17:18:17.605Z,8.50
2019-06-26T17:20:47.874Z,7.37
2019-06-26T17:23:19.111Z,7.45
2019-06-26T17:25:50.693Z,7.92
2019-06-26T17:28:22.416Z,7.60
2019-06-26T17:30:53.930Z,6.65
2019-06-26T17:33:25.467Z,6.85
2019-06-26T17:35:56.961Z,7.05
2019-06-26T17:38:28.791Z,7.08
2019-06-26T17:41:00.386Z,7.87
2019-06-26T17:43:31.972Z,6.97
2019-06-26T17:46:03.425Z,7.12
2019-06-26T17:48:35.154Z,8.20
2019-06-26T17:51:06.659Z,8.40
2019-06-26T17:53:38.254Z,13.00
2019-06-26T17:56:09.771Z,9.78
2019-06-26T17:58:41.288Z,6.35
2019-06-26T18:01:12.875Z,10.43
2019-06-26T18:03:44.807Z,6.70
2019-06-26T18:06:16.308Z,11.35
2019-06-26T18:08:47.911Z,73.60
2019-06-26T18:11:19.359Z,88.70
2019-06-26T18:13:51.031Z,248.80
2019-06-26T18:16:22.548Z,221.75
2019-06-26T18:18:54.051Z,83.92
2019-06-26T18:21:25.814Z,26.82
2019-06-26T18:23:57.399Z,9.98
2019-06-26T18:26:29.017Z,5.65
2019-06-26T18:29:00.450Z,7.83
2019-06-26T18:31:31.997Z,7.08
2019-06-26T18:34:03.449Z,5.05
2019-06-26T18:36:35.070Z,3.70
2019-06-26T18:39:08.335Z,3.25
2019-06-26T18:41:39.793Z,3.10
2019-06-26T18:44:11.321Z,3.05
2019-06-26T18:46:42.835Z,2.72
2019-06-26T18:49:14.407Z,2.55
2019-06-26T18:51:45.997Z,2.92
2019-06-26T18:54:17.432Z,4.15
2019-06-26T18:56:48.933Z,6.03
2019-06-26T18:59:20.435Z,4.05
2019-06-26T19:01:51.938Z,5.30
2019-06-26T19:04:23.365Z,3.52
2019-06-26T19:06:54.926Z,3.70
2019-06-26T19:09:26.410Z,2.42
2019-06-26T19:11:57.998Z,4.22
2019-06-26T19:14:29.616Z,3.85
2019-06-26T19:17:01.143Z,12.07
2019-06-26T19:19:32.735Z,4.37
2019-06-26T19:22:04.362Z,5.78
2019-06-26T19:24:35.974Z,6.67
2019-06-26T19:27:07.890Z,19.95
2019-06-26T19:29:39.380Z,48.10
2019-06-26T19:32:11.053Z,23.38
2019-06-26T19:34:42.561Z,27.37
2019-06-26T19:37:14.295Z,16.07
2019-06-26T19:39:45.883Z,2.65
2019-06-26T19:42:17.492Z,9.50
2019-06-26T19:44:48.917Z,2.33
2019-06-26T19:47:20.421Z,2.25
2019-06-26T19:49:51.910Z,1.70
2019-06-26T19:52:23.523Z,3.15
2019-06-26T19:54:55.336Z,1.65
2019-06-26T19:57:26.831Z,6.60
2019-06-26T19:59:58.449Z,3.52
2019-06-26T20:02:29.950Z,3.30
2019-06-26T20:05:01.381Z,2.10
2019-06-26T20:07:32.963Z,2.70
2019-06-26T20:10:05.659Z,2.20
2019-06-26T20:12:37.313Z,2.62
2019-06-26T20:15:09.299Z,2.00
2019-06-26T20:17:40.870Z,2.20
2019-06-26T20:20:12.559Z,1.95
2019-06-26T20:22:43.983Z,1.90
2019-06-26T20:25:15.553Z,2.27
2019-06-26T20:27:47.057Z,1.95
2019-06-26T20:30:28.118Z,2.27
2019-06-26T20:32:59.729Z,2.15
2019-06-26T20:35:31.966Z,2.70
2019-06-26T20:38:03.595Z,2.20
2019-06-26T20:40:35.111Z,2.33
2019-06-26T20:43:06.742Z,2.70
2019-06-26T20:45:38.322Z,5.17
2019-06-26T20:48:09.925Z,2.58
2019-06-26T20:50:41.381Z,5.65
2019-06-26T20:53:12.823Z,3.00
2019-06-26T20:55:44.454Z,3.47
2019-06-26T20:58:16.027Z,3.17
2019-06-26T21:00:47.794Z,3.00
2019-06-26T21:03:21.335Z,2.40
2019-06-26T21:05:52.378Z,2.45
2019-06-26T21:08:23.902Z,2.00
2019-06-26T21:10:55.594Z,2.10
2019-06-26T21:13:27.105Z,2.60
2019-06-26T21:15:58.878Z,2.60
2019-06-26T21:18:30.523Z,2.22
2019-06-26T21:21:02.121Z,2.25
2019-06-26T21:23:33.534Z,2.42
2019-06-26T21:26:05.047Z,2.20
2019-06-26T21:28:37.348Z,2.35
2019-06-26T21:31:09.357Z,2.10
2019-06-26T21:33:40.867Z,2.27
2019-06-26T21:36:12.529Z,2.40
2019-06-26T21:38:44.098Z,2.50
2019-06-26T21:41:15.599Z,2.30
2019-06-26T21:43:47.386Z,2.50
2019-06-26T21:46:18.856Z,2.40
2019-06-26T21:48:50.371Z,2.42
2019-06-26T21:51:21.871Z,2.58
2019-06-26T21:53:53.280Z,2.08
2019-06-26T21:56:24.739Z,2.75
2019-06-26T21:58:56.206Z,2.60
2019-06-26T22:01:27.928Z,2.47
2019-06-26T22:03:59.613Z,2.65
2019-06-26T22:06:31.183Z,2.85
2019-06-26T22:09:02.743Z,2.67
2019-06-26T22:11:34.269Z,2.65
2019-06-26T22:14:06.072Z,2.72
2019-06-26T22:16:37.574Z,2.92
2019-06-26T22:19:09.222Z,3.65
2019-06-26T22:21:40.729Z,3.22
2019-06-26T22:24:12.314Z,3.27
